Time;durP1;ratioP1;P1;durP2;ratioP2;P2;SDS_P1;SDS_P2;PMS_P1;PMS_P2;Temp;Humidity;BMP_temperature;BMP_pressure;BME280_temperature;BME280_humidity;BME280_pressure;Samples;Min_cycle;Max_cycle;Signal;HPM_P1;HPM_P2
2022/02/16 00:02:16;;;;;;;0.57;0.57;;;18.00;53.20;;;;;;5053897;28;20171;-61
2022/02/16 00:04:41;;;;;;;0.60;0.60;;;18.00;53.30;;;;;;5054488;28;20177;-61
2022/02/16 00:07:07;;;;;;;0.82;0.70;;;18.00;53.30;;;;;;5053032;28;20516;-62
2022/02/16 00:09:32;;;;;;;0.88;0.65;;;18.00;53.30;;;;;;5054313;28;20186;-63
2022/02/16 00:12:00;;;;;;;1.42;0.77;;;17.90;53.20;;;;;;5054050;28;20656;-65
2022/02/16 00:14:26;;;;;;;1.58;0.70;;;17.90;53.30;;;;;;5053362;28;20237;-64
2022/02/16 00:16:51;;;;;;;1.08;0.75;;;17.90;53.30;;;;;;5053967;28;20175;-63
2022/02/16 00:19:17;;;;;;;0.50;0.50;;;17.90;53.30;;;;;;5053961;28;20213;-63
2022/02/16 00:21:42;;;;;;;1.98;0.60;;;17.90;53.30;;;;;;5053265;28;20187;-62
2022/02/16 00:24:08;;;;;;;1.05;0.70;;;17.90;53.30;;;;;;5053558;28;20179;-62
2022/02/16 00:26:33;;;;;;;1.13;0.70;;;17.90;53.30;;;;;;5053973;28;20233;-61
2022/02/16 00:28:59;;;;;;;0.70;0.52;;;17.90;53.30;;;;;;5052693;28;20187;-62
2022/02/16 00:31:24;;;;;;;0.90;0.60;;;17.90;53.30;;;;;;5053891;28;20171;-60
2022/02/16 00:33:50;;;;;;;1.20;0.60;;;17.90;53.30;;;;;;5053757;28;20589;-62
2022/02/16 00:36:15;;;;;;;0.60;0.60;;;17.80;53.30;;;;;;5052958;28;20178;-62
2022/02/16 00:38:41;;;;;;;0.52;0.52;;;17.80;53.30;;;;;;5052579;28;20252;-64
2022/02/16 00:41:06;;;;;;;1.55;0.60;;;17.80;53.30;;;;;;5053687;28;20183;-62
2022/02/16 00:43:32;;;;;;;0.68;0.50;;;17.80;53.40;;;;;;5052802;28;20167;-62
2022/02/16 00:45:57;;;;;;;0.63;0.57;;;17.80;53.40;;;;;;5053582;28;20174;-61
2022/02/16 00:48:23;;;;;;;0.90;0.52;;;17.70;53.30;;;;;;5053510;28;20221;-61
2022/02/16 00:50:48;;;;;;;0.70;0.70;;;17.80;53.40;;;;;;5052837;28;20171;-62
2022/02/16 00:53:14;;;;;;;0.77;0.70;;;17.80;53.40;;;;;;5053213;28;20198;-63
2022/02/16 00:55:39;;;;;;;1.00;0.68;;;17.80;53.40;;;;;;5052620;28;20218;-63
2022/02/16 00:58:05;;;;;;;0.65;0.60;;;17.80;53.40;;;;;;5052311;28;20536;-61
2022/02/16 01:00:34;;;;;;;0.70;0.50;;;17.70;53.40;;;;;;5053221;28;20324;-62
2022/02/16 01:02:59;;;;;;;0.95;0.60;;;17.70;53.40;;;;;;5052367;28;20175;-61
2022/02/16 01:05:25;;;;;;;0.68;0.63;;;17.70;53.40;;;;;;5053301;28;20539;-70
2022/02/16 01:07:50;;;;;;;0.80;0.80;;;17.70;53.40;;;;;;5053255;28;20299;-62
2022/02/16 01:10:16;;;;;;;0.73;0.60;;;17.70;53.40;;;;;;5052039;28;20281;-63
2022/02/16 01:12:41;;;;;;;0.60;0.60;;;17.70;53.40;;;;;;5052898;28;20194;-64
2022/02/16 01:15:07;;;;;;;0.88;0.60;;;17.70;53.40;;;;;;5052898;28;20602;-63
2022/02/16 01:17:33;;;;;;;0.85;0.80;;;17.60;53.40;;;;;;5052399;28;20278;-63
2022/02/16 01:19:58;;;;;;;1.05;0.80;;;17.70;53.50;;;;;;5052767;28;20171;-63
2022/02/16 01:22:25;;;;;;;1.85;0.70;;;17.60;53.40;;;;;;5052775;28;20181;-62
2022/02/16 01:24:50;;;;;;;0.95;0.95;;;17.60;53.40;;;;;;5051941;28;20590;-62
2022/02/16 01:27:16;;;;;;;0.77;0.68;;;17.70;53.50;;;;;;5052437;28;20352;-61
2022/02/16 01:29:42;;;;;;;0.70;0.70;;;17.60;53.40;;;;;;5052649;28;20178;-61
2022/02/16 01:32:10;;;;;;;0.65;0.65;;;17.60;53.40;;;;;;5051857;28;20483;-61
2022/02/16 01:34:36;;;;;;;1.15;0.60;;;17.60;54.10;;;;;;5052888;28;20182;-61
2022/02/16 01:37:01;;;;;;;0.85;0.60;;;17.60;53.50;;;;;;5052186;28;20179;-62
2022/02/16 01:39:27;;;;;;;1.27;0.90;;;17.60;53.40;;;;;;5051915;28;20609;-61
2022/02/16 01:41:53;;;;;;;1.08;0.90;;;17.60;53.40;;;;;;5052133;28;20167;-62
2022/02/16 01:44:20;;;;;;;0.70;0.70;;;17.60;53.50;;;;;;5052688;28;20183;-61
2022/02/16 01:46:49;;;;;;;0.70;0.70;;;17.60;53.50;;;;;;5051920;28;20294;-62
2022/02/16 01:49:15;;;;;;;0.82;0.82;;;17.50;53.50;;;;;;5052176;28;20385;-62
2022/02/16 01:51:40;;;;;;;0.73;0.73;;;17.50;53.50;;;;;;5052324;28;20295;-62
2022/02/16 01:54:09;;;;;;;0.68;0.60;;;17.50;53.50;;;;;;5051435;28;20172;-63
2022/02/16 01:56:35;;;;;;;1.52;0.80;;;17.50;53.50;;;;;;5052015;28;20588;-62
2022/02/16 01:59:01;;;;;;;1.05;0.70;;;17.50;53.50;;;;;;5051509;28;20193;-62
2022/02/16 02:01:26;;;;;;;0.80;0.80;;;17.50;53.50;;;;;;5052197;28;20183;-61
2022/02/16 02:03:52;;;;;;;1.38;0.80;;;17.50;53.50;;;;;;5034400;28;20171;-61
2022/02/16 02:06:17;;;;;;;1.08;0.75;;;17.50;53.50;;;;;;5051214;28;20192;-62
2022/02/16 02:08:43;;;;;;;0.80;0.60;;;17.50;53.60;;;;;;5051986;28;20180;-62
2022/02/16 02:11:08;;;;;;;1.55;0.90;;;17.50;53.60;;;;;;5051674;28;20516;-63
2022/02/16 02:13:34;;;;;;;0.68;0.68;;;17.50;53.60;;;;;;5051392;28;20179;-63
2022/02/16 02:15:59;;;;;;;0.63;0.60;;;17.50;53.60;;;;;;5051802;28;20703;-64
2022/02/16 02:18:25;;;;;;;0.68;0.65;;;17.40;53.50;;;;;;5052029;28;20225;-63
2022/02/16 02:20:50;;;;;;;0.85;0.82;;;17.40;53.60;;;;;;5051130;28;20179;-63
2022/02/16 02:23:16;;;;;;;0.70;0.70;;;17.40;53.60;;;;;;5051540;28;20213;-63
2022/02/16 02:25:48;;;;;;;0.75;0.60;;;17.40;53.60;;;;;;5051691;28;20187;-61
2022/02/16 02:28:14;;;;;;;0.93;0.75;;;17.40;53.60;;;;;;5050595;28;20774;-61
2022/02/16 02:30:40;;;;;;;1.42;0.80;;;17.40;53.60;;;;;;5051878;28;20570;-61
2022/02/16 02:33:05;;;;;;;0.65;0.63;;;17.40;53.60;;;;;;5051331;28;20586;-61
2022/02/16 02:35:31;;;;;;;1.13;0.90;;;17.40;53.60;;;;;;5051038;28;20202;-61
2022/02/16 02:37:56;;;;;;;1.02;0.70;;;17.30;53.60;;;;;;5051527;28;20179;-62
2022/02/16 02:40:22;;;;;;;1.05;0.80;;;17.40;53.60;;;;;;5051729;28;20271;-61
2022/02/16 02:42:47;;;;;;;0.88;0.70;;;17.40;53.70;;;;;;5051159;28;20244;-62
2022/02/16 02:45:14;;;;;;;0.70;0.63;;;17.40;53.70;;;;;;5051337;28;20216;-61
2022/02/16 02:47:40;;;;;;;0.93;0.73;;;17.40;53.70;;;;;;5051550;28;20218;-62
2022/02/16 02:50:05;;;;;;;0.88;0.80;;;17.30;53.60;;;;;;5050564;28;20226;-62
2022/02/16 02:52:32;;;;;;;1.70;1.00;;;17.40;53.70;;;;;;5051397;28;20559;-62
2022/02/16 02:54:57;;;;;;;0.75;0.75;;;17.30;54.30;;;;;;5051227;28;20178;-63
2022/02/16 02:57:23;;;;;;;0.80;0.80;;;17.30;53.70;;;;;;5050824;28;20183;-62
2022/02/16 02:59:49;;;;;;;0.80;0.70;;;17.30;53.70;;;;;;5051460;28;20180;-61
2022/02/16 03:02:14;;;;;;;1.00;0.80;;;17.30;53.70;;;;;;5050347;28;20171;-61
2022/02/16 03:04:40;;;;;;;1.00;0.90;;;17.30;53.70;;;;;;5051277;28;20244;-61
2022/02/16 03:07:05;;;;;;;0.98;0.82;;;17.30;53.70;;;;;;5051159;28;20622;-62
2022/02/16 03:09:31;;;;;;;1.50;0.80;;;17.30;53.70;;;;;;5050617;28;20168;-62
2022/02/16 03:11:56;;;;;;;1.20;0.82;;;17.30;53.70;;;;;;5051282;28;20183;-64
2022/02/16 03:14:21;;;;;;;0.85;0.80;;;17.30;53.70;;;;;;5051490;28;20256;-64
2022/02/16 03:16:47;;;;;;;1.08;0.98;;;17.30;53.70;;;;;;5050547;28;20266;-64
2022/02/16 03:19:12;;;;;;;1.30;0.68;;;17.30;53.70;;;;;;5051052;28;20183;-63
2022/02/16 03:21:38;;;;;;;0.90;0.68;;;17.20;53.70;;;;;;5054916;28;20171;-62
2022/02/16 03:24:06;;;;;;;1.17;0.90;;;17.20;53.70;;;;;;5053846;28;20198;-62
2022/02/16 03:26:31;;;;;;;1.02;0.80;;;17.30;53.70;;;;;;5055046;28;20302;-62
2022/02/16 03:28:57;;;;;;;1.17;0.73;;;17.30;53.80;;;;;;5054652;28;20250;-62
2022/02/16 03:31:23;;;;;;;1.27;0.88;;;17.20;53.70;;;;;;5054198;28;20171;-61
2022/02/16 03:33:48;;;;;;;0.65;0.65;;;17.20;53.80;;;;;;5054960;28;20194;-61
2022/02/16 03:36:14;;;;;;;0.73;0.73;;;17.20;53.70;;;;;;5054484;28;20559;-62
2022/02/16 03:38:39;;;;;;;1.23;0.77;;;17.20;53.80;;;;;;5053965;28;20630;-61
2022/02/16 03:41:05;;;;;;;0.70;0.63;;;17.20;53.80;;;;;;5054412;28;20172;-62
2022/02/16 03:43:30;;;;;;;0.60;0.60;;;17.20;53.80;;;;;;5054537;28;20246;-61
2022/02/16 03:45:56;;;;;;;0.60;0.60;;;17.20;53.80;;;;;;5053600;28;20563;-62
2022/02/16 03:48:21;;;;;;;1.60;0.80;;;17.20;53.80;;;;;;5054543;28;20236;-62
2022/02/16 03:50:47;;;;;;;0.93;0.90;;;17.20;53.80;;;;;;5054497;28;20316;-62
2022/02/16 03:53:12;;;;;;;0.70;0.70;;;17.20;53.80;;;;;;5053367;28;20175;-63
2022/02/16 03:55:37;;;;;;;1.45;0.80;;;17.10;53.80;;;;;;5054204;28;20226;-63
2022/02/16 03:58:03;;;;;;;0.60;0.60;;;17.10;53.80;;;;;;5054065;28;20630;-62
2022/02/16 04:00:28;;;;;;;0.70;0.70;;;17.10;53.80;;;;;;5053537;28;20217;-62
2022/02/16 04:02:54;;;;;;;1.00;0.90;;;17.10;53.80;;;;;;5053898;28;20186;-61
2022/02/16 04:05:19;;;;;;;0.73;0.60;;;17.10;53.90;;;;;;5054204;28;20210;-61
2022/02/16 04:07:45;;;;;;;0.77;0.70;;;17.10;53.90;;;;;;5053292;28;20218;-62
2022/02/16 04:10:11;;;;;;;0.80;0.70;;;17.10;53.90;;;;;;5053991;28;20163;-63
2022/02/16 04:12:36;;;;;;;0.60;0.60;;;17.10;53.90;;;;;;5053412;28;20261;-64
2022/02/16 04:15:02;;;;;;;0.98;0.90;;;17.10;53.90;;;;;;5053631;28;20168;-64
2022/02/16 04:17:28;;;;;;;2.20;0.90;;;17.10;53.90;;;;;;5053989;28;20224;-63
2022/02/16 04:19:54;;;;;;;0.82;0.82;;;17.10;53.90;;;;;;5052800;28;20974;-63
2022/02/16 04:22:20;;;;;;;0.70;0.70;;;17.10;53.90;;;;;;5053796;28;20384;-62
2022/02/16 04:24:45;;;;;;;1.05;0.65;;;17.00;53.90;;;;;;5053745;28;20330;-62
2022/02/16 04:27:11;;;;;;;1.05;0.90;;;17.00;53.90;;;;;;5052630;28;20233;-61
2022/02/16 04:29:36;;;;;;;1.55;1.20;;;17.10;53.90;;;;;;5053784;28;20258;-60
2022/02/16 04:32:02;;;;;;;0.50;0.50;;;17.00;53.90;;;;;;5052147;28;20202;-61
2022/02/16 04:34:28;;;;;;;0.73;0.70;;;17.00;53.90;;;;;;5052990;28;20200;-61
2022/02/16 04:36:53;;;;;;;1.17;1.08;;;17.00;53.90;;;;;;5053211;28;20183;-63
2022/02/16 04:39:19;;;;;;;0.55;0.55;;;17.00;53.90;;;;;;5053490;28;20630;-62
2022/02/16 04:41:44;;;;;;;0.70;0.70;;;17.00;53.90;;;;;;5053059;28;20171;-63
2022/02/16 04:44:10;;;;;;;0.60;0.60;;;17.00;53.90;;;;;;5053415;28;20178;-62
2022/02/16 04:46:35;;;;;;;0.73;0.73;;;17.00;54.00;;;;;;5053423;28;20187;-62
2022/02/16 04:49:01;;;;;;;0.60;0.60;;;17.00;54.00;;;;;;5052354;28;20171;-62
2022/02/16 04:51:26;;;;;;;1.00;0.90;;;17.00;54.60;;;;;;5053254;28;20171;-62
2022/02/16 04:53:52;;;;;;;1.20;0.75;;;17.00;54.00;;;;;;5053295;28;20553;-64
2022/02/16 04:56:18;;;;;;;0.85;0.80;;;17.00;54.00;;;;;;5052275;28;20266;-63
2022/02/16 04:58:44;;;;;;;0.65;0.60;;;17.00;54.00;;;;;;5053404;28;20185;-62
2022/02/16 05:01:09;;;;;;;1.48;0.75;;;17.00;54.00;;;;;;5052896;28;20246;-62
2022/02/16 05:03:35;;;;;;;0.88;0.68;;;17.00;54.00;;;;;;5052469;28;20221;-61
2022/02/16 05:06:00;;;;;;;1.08;1.02;;;17.00;54.00;;;;;;5052650;28;20602;-62
2022/02/16 05:08:26;;;;;;;0.82;0.82;;;17.00;54.00;;;;;;5053233;28;20211;-62
2022/02/16 05:10:52;;;;;;;0.68;0.68;;;16.90;54.00;;;;;;5052480;28;20167;-64
2022/02/16 05:13:17;;;;;;;0.80;0.80;;;16.90;54.00;;;;;;5052943;28;20179;-65
2022/02/16 05:15:43;;;;;;;0.70;0.70;;;16.90;54.00;;;;;;5053006;28;20254;-63
2022/02/16 05:18:08;;;;;;;1.00;0.90;;;16.90;54.00;;;;;;5051906;28;20171;-64
2022/02/16 05:20:33;;;;;;;0.60;0.60;;;16.90;54.00;;;;;;5052606;28;20549;-63
2022/02/16 05:23:02;;;;;;;0.70;0.70;;;16.90;54.00;;;;;;5051667;28;20183;-63
2022/02/16 05:25:28;;;;;;;0.80;0.80;;;16.90;54.10;;;;;;5052567;28;20316;-62
2022/02/16 05:27:53;;;;;;;0.70;0.70;;;16.90;54.10;;;;;;5052414;28;20295;-62
2022/02/16 05:30:19;;;;;;;0.85;0.80;;;16.90;54.10;;;;;;5052056;28;20167;-61
2022/02/16 05:32:44;;;;;;;0.88;0.88;;;16.90;54.10;;;;;;5052478;28;20251;-61
2022/02/16 05:35:10;;;;;;;0.80;0.80;;;16.90;54.10;;;;;;5052252;28;20243;-63
2022/02/16 05:37:36;;;;;;;0.60;0.60;;;16.90;54.10;;;;;;5051967;28;20259;-62
2022/02/16 05:40:02;;;;;;;0.63;0.63;;;16.90;54.10;;;;;;5052222;28;20210;-62
2022/02/16 05:42:28;;;;;;;0.88;0.82;;;16.80;54.10;;;;;;5052070;28;20211;-62
2022/02/16 05:44:53;;;;;;;1.08;1.00;;;16.80;54.20;;;;;;5051322;28;20187;-61
2022/02/16 05:47:19;;;;;;;0.75;0.75;;;16.80;54.10;;;;;;5052215;28;20224;-62
2022/02/16 05:49:44;;;;;;;0.82;0.70;;;16.80;54.20;;;;;;5052100;28;20182;-64
2022/02/16 05:52:10;;;;;;;0.70;0.70;;;16.80;54.20;;;;;;5051037;28;20515;-63
2022/02/16 05:54:35;;;;;;;0.70;0.70;;;16.80;54.20;;;;;;5052353;28;20167;-63
2022/02/16 05:57:01;;;;;;;0.82;0.77;;;16.80;54.20;;;;;;5051506;28;20230;-63
2022/02/16 05:59:26;;;;;;;0.50;0.50;;;16.80;54.20;;;;;;5051371;28;20209;-61
2022/02/16 06:01:52;;;;;;;0.60;0.60;;;16.80;54.20;;;;;;5052165;28;20208;-62
2022/02/16 06:04:17;;;;;;;0.80;0.80;;;16.80;54.20;;;;;;5051762;28;20593;-61
2022/02/16 06:06:43;;;;;;;0.55;0.55;;;16.80;54.20;;;;;;5051582;28;20203;-61
2022/02/16 06:09:09;;;;;;;0.75;0.55;;;16.80;54.20;;;;;;5051785;28;20776;-62
2022/02/16 06:11:34;;;;;;;0.70;0.70;;;16.80;54.30;;;;;;5052037;28;20182;-63
2022/02/16 06:14:00;;;;;;;0.40;0.40;;;16.80;54.30;;;;;;5050936;28;20175;-64
2022/02/16 06:16:26;;;;;;;0.50;0.50;;;16.70;54.20;;;;;;5051805;28;20502;-63
2022/02/16 06:18:51;;;;;;;0.57;0.57;;;16.70;54.20;;;;;;5051845;28;20178;-64
2022/02/16 06:21:17;;;;;;;0.40;0.40;;;16.80;54.30;;;;;;5050931;28;20175;-62
2022/02/16 06:23:42;;;;;;;0.75;0.68;;;16.70;54.30;;;;;;5051969;28;20221;-63
2022/02/16 06:26:08;;;;;;;0.70;0.70;;;16.80;54.30;;;;;;5051330;28;20179;-62
2022/02/16 06:28:34;;;;;;;0.60;0.60;;;16.80;54.40;;;;;;5051380;28;20246;-61
2022/02/16 06:31:01;;;;;;;0.73;0.57;;;16.70;54.40;;;;;;5051423;28;20611;-62
2022/02/16 06:33:26;;;;;;;0.90;0.70;;;16.70;54.30;;;;;;5050991;28;20199;-60
2022/02/16 06:35:52;;;;;;;0.63;0.50;;;16.70;54.40;;;;;;5051648;28;20637;-62
2022/02/16 06:38:17;;;;;;;0.60;0.60;;;16.70;54.40;;;;;;5051829;28;20274;-62
2022/02/16 06:40:43;;;;;;;0.50;0.50;;;16.70;54.40;;;;;;5051182;28;20206;-62
2022/02/16 06:43:09;;;;;;;0.60;0.50;;;16.70;54.50;;;;;;5051231;28;20262;-61
2022/02/16 06:45:34;;;;;;;0.40;0.40;;;16.70;54.40;;;;;;5051622;28;20186;-61
2022/02/16 06:48:00;;;;;;;1.30;0.80;;;16.70;54.40;;;;;;5050397;28;20638;-61
2022/02/16 06:50:25;;;;;;;1.00;0.60;;;16.70;54.50;;;;;;5051591;28;20248;-62
2022/02/16 06:52:51;;;;;;;0.47;0.47;;;16.70;54.40;;;;;;5051882;28;20195;-62
2022/02/16 06:55:17;;;;;;;0.68;0.68;;;16.70;54.50;;;;;;5052194;28;20214;-62
2022/02/16 06:57:42;;;;;;;1.10;0.70;;;16.70;54.50;;;;;;5055931;28;20171;-61
2022/02/16 07:00:08;;;;;;;0.65;0.50;;;16.70;54.60;;;;;;5055196;28;20531;-68
2022/02/16 07:02:41;;;;;;;2.83;0.73;;;16.60;54.70;;;;;;5054796;28;20183;-67
2022/02/16 07:05:07;;;;;;;1.90;0.95;;;16.70;55.00;;;;;;5055220;28;20171;-67
2022/02/16 07:07:33;;;;;;;1.98;0.75;;;16.70;54.70;;;;;;5055567;28;20211;-71
2022/02/16 07:09:58;;;;;;;0.75;0.73;;;16.70;54.70;;;;;;5054327;28;20182;-65
2022/02/16 07:12:24;;;;;;;1.33;0.70;;;16.70;54.90;;;;;;5055400;28;20175;-66
2022/02/16 07:14:54;;;;;;;1.20;0.60;;;16.80;54.70;;;;;;5055022;28;20581;-65
2022/02/16 07:17:19;;;;;;;2.90;0.90;;;16.80;54.70;;;;;;5054533;28;20190;-65
2022/02/16 07:19:45;;;;;;;0.73;0.60;;;16.80;54.80;;;;;;5055071;28;20499;-65
2022/02/16 07:22:10;;;;;;;0.40;0.40;;;16.80;54.70;;;;;;5054970;28;20171;-64
2022/02/16 07:24:36;;;;;;;2.03;0.43;;;16.80;54.80;;;;;;5054692;28;20183;-64
2022/02/16 07:27:03;;;;;;;0.65;0.40;;;16.80;54.80;;;;;;5054684;28;20330;-63
2022/02/16 07:29:28;;;;;;;3.60;0.90;;;16.80;54.90;;;;;;5054501;28;20643;-65
2022/02/16 07:31:54;;;;;;;0.88;0.57;;;16.80;54.90;;;;;;5054787;28;20660;-64
2022/02/16 07:34:19;;;;;;;0.65;0.50;;;16.80;54.90;;;;;;5055270;28;20181;-69
2022/02/16 07:36:45;;;;;;;2.70;0.70;;;16.80;54.90;;;;;;5054558;28;20197;-67
2022/02/16 07:39:10;;;;;;;1.10;0.50;;;16.80;55.00;;;;;;5054907;28;20501;-69
2022/02/16 07:41:36;;;;;;;2.13;0.63;;;16.80;55.40;;;;;;5054958;28;20183;-69
2022/02/16 07:44:04;;;;;;;1.60;0.40;;;16.80;55.20;;;;;;5053731;28;20634;-67
2022/02/16 07:46:30;;;;;;;2.05;0.77;;;17.00;55.50;;;;;;5054492;28;20244;-67
2022/02/16 07:48:55;;;;;;;2.78;0.65;;;17.00;55.30;;;;;;5054565;28;20175;-67
2022/02/16 07:51:21;;;;;;;2.72;0.63;;;17.10;55.30;;;;;;5053958;28;20224;-67
2022/02/16 07:53:48;;;;;;;1.90;0.50;;;17.20;55.00;;;;;;5054525;28;20191;-67
2022/02/16 07:56:13;;;;;;;1.98;0.40;;;17.40;54.90;;;;;;5056274;28;20223;-68
2022/02/16 07:58:39;;;;;;;3.67;0.77;;;17.60;54.70;;;;;;5053685;28;20202;-68
2022/02/16 08:01:04;;;;;;;1.38;0.50;;;17.80;54.50;;;;;;5053892;28;20704;-67
2022/02/16 08:03:30;;;;;;;0.98;0.70;;;17.80;54.30;;;;;;5054544;28;20187;-68
2022/02/16 08:05:55;;;;;;;2.28;0.50;;;17.90;54.20;;;;;;5053175;28;20171;-67
2022/02/16 08:08:21;;;;;;;3.10;0.70;;;18.00;54.00;;;;;;5054539;28;20210;-68
2022/02/16 08:10:50;;;;;;;0.35;0.30;;;18.10;54.00;;;;;;5054389;28;20182;-67
2022/02/16 08:13:16;;;;;;;1.92;0.50;;;18.10;53.80;;;;;;5053292;28;20179;-67
2022/02/16 08:15:41;;;;;;;2.70;0.65;;;18.20;53.80;;;;;;5054231;28;20172;-67
2022/02/16 08:18:07;;;;;;;0.60;0.40;;;18.20;53.70;;;;;;5053805;28;20179;-67
2022/02/16 08:20:32;;;;;;;3.70;0.70;;;18.30;53.70;;;;;;5053179;28;20611;-67
2022/02/16 08:22:58;;;;;;;1.40;0.40;;;18.30;53.60;;;;;;5053763;28;20194;-66
2022/02/16 08:25:23;;;;;;;1.67;0.40;;;18.40;53.70;;;;;;5054088;28;20172;-67
2022/02/16 08:27:49;;;;;;;0.35;0.30;;;18.30;53.60;;;;;;5053070;28;20241;-66
2022/02/16 08:30:14;;;;;;;1.95;0.40;;;18.30;53.60;;;;;;5073474;28;20174;-66
2022/02/16 08:32:40;;;;;;;1.27;0.38;;;18.40;53.70;;;;;;5073888;28;20178;-71
2022/02/16 08:35:07;;;;;;;1.75;0.68;;;18.40;53.60;;;;;;5073099;28;20651;-70
2022/02/16 08:37:32;;;;;;;17.52;0.93;;;18.40;53.60;;;;;;5074185;28;20174;-66
2022/02/16 08:39:58;;;;;;;1.10;0.40;;;18.40;53.60;;;;;;5072706;28;20489;-64
2022/02/16 08:42:24;;;;;;;7.10;0.73;;;18.40;53.60;;;;;;5073627;28;20174;-67
2022/02/16 08:44:49;;;;;;;4.20;0.60;;;18.30;53.70;;;;;;5061378;28;20167;-66
2022/02/16 08:47:16;;;;;;;0.45;0.40;;;18.30;53.70;;;;;;5060634;28;20203;-67
2022/02/16 08:49:44;;;;;;;1.75;0.50;;;18.30;53.90;;;;;;5062301;28;20166;-67
2022/02/16 08:52:12;;;;;;;1.55;0.50;;;18.20;54.00;;;;;;5061878;28;20182;-67
2022/02/16 08:54:38;;;;;;;0.50;0.40;;;18.20;54.80;;;;;;5060507;28;20570;-67
2022/02/16 08:57:04;;;;;;;2.10;0.55;;;18.20;54.10;;;;;;5060947;28;20700;-67
2022/02/16 08:59:30;;;;;;;2.20;0.40;;;18.20;54.10;;;;;;5066248;28;20607;-67
2022/02/16 09:01:56;;;;;;;0.55;0.35;;;18.20;54.10;;;;;;5062750;28;20266;-67
2022/02/16 09:04:21;;;;;;;2.92;0.60;;;18.10;54.10;;;;;;5061801;28;20251;-68
2022/02/16 09:07:27;;;;;;;1.30;0.57;;;18.10;54.20;;;;;;5062697;28;20387;-67
2022/02/16 09:09:36;;;;;;;0.90;0.50;;;18.10;54.20;;;;;;5062059;28;20175;-67
2022/02/16 09:12:03;;;;;;;1.75;0.47;;;18.10;54.20;;;;;;5061040;28;20195;-66
2022/02/16 09:14:28;;;;;;;0.88;0.38;;;18.10;54.20;;;;;;5062427;28;20673;-66
2022/02/16 09:16:54;;;;;;;0.90;0.40;;;18.10;54.30;;;;;;5062169;28;20261;-64
2022/02/16 09:19:20;;;;;;;0.95;0.50;;;18.10;54.30;;;;;;5062792;28;20625;-66
2022/02/16 09:21:45;;;;;;;1.60;0.57;;;18.10;54.40;;;;;;5062555;28;20187;-66
2022/02/16 09:24:11;;;;;;;2.17;0.65;;;18.10;54.30;;;;;;5062204;28;20198;-66
2022/02/16 09:26:36;;;;;;;1.63;0.50;;;18.20;54.30;;;;;;5061114;28;20653;-67
2022/02/16 09:29:02;;;;;;;1.45;0.57;;;18.20;54.20;;;;;;5059528;28;20219;-66
2022/02/16 09:31:28;;;;;;;0.50;0.40;;;18.20;54.20;;;;;;5062851;28;20262;-67
2022/02/16 09:33:54;;;;;;;0.82;0.70;;;18.20;54.30;;;;;;5072003;28;20282;-68
2022/02/16 09:36:19;;;;;;;4.10;0.40;;;18.10;54.40;;;;;;5071665;28;20178;-69
2022/02/16 09:38:45;;;;;;;1.20;0.40;;;18.10;54.50;;;;;;5071782;28;20565;-68
2022/02/16 09:41:10;;;;;;;2.10;0.60;;;18.00;54.60;;;;;;5071701;28;20187;-70
2022/02/16 09:43:36;;;;;;;0.80;0.52;;;18.00;54.70;;;;;;5037180;28;20187;-68
2022/02/16 09:46:01;;;;;;;1.38;0.73;;;18.00;54.70;;;;;;5071930;28;20178;-69
2022/02/16 09:48:27;;;;;;;2.20;0.30;;;18.00;54.80;;;;;;5054291;28;20237;-69
2022/02/16 09:50:53;;;;;;;3.83;0.45;;;18.00;54.70;;;;;;5071055;28;20182;-65
2022/02/16 09:53:19;;;;;;;2.40;0.40;;;18.00;54.70;;;;;;5071974;28;20517;-69
2022/02/16 09:55:44;;;;;;;2.13;0.60;;;18.00;54.70;;;;;;5071675;28;20237;-68
2022/02/16 09:58:10;;;;;;;1.27;0.30;;;18.00;54.80;;;;;;5070988;28;20265;-68
2022/02/16 10:00:36;;;;;;;1.25;0.55;;;18.00;54.70;;;;;;5071961;28;20177;-69
2022/02/16 10:03:11;;;;;;;1.38;0.50;;;17.90;54.80;;;;;;5071698;28;20185;-68
2022/02/16 10:05:37;;;;;;;0.73;0.43;;;17.90;54.90;;;;;;5070997;28;20235;-68
2022/02/16 10:08:02;;;;;;;1.00;0.50;;;17.90;55.00;;;;;;5071379;28;20210;-68
2022/02/16 10:10:28;;;;;;;1.75;0.40;;;17.80;55.00;;;;;;5071666;28;20533;-68
2022/02/16 10:12:55;;;;;;;0.43;0.40;;;17.80;55.10;;;;;;5070581;28;20178;-67
2022/02/16 10:15:22;;;;;;;1.38;0.40;;;17.80;55.10;;;;;;5071872;28;20185;-67
2022/02/16 10:17:48;;;;;;;1.20;0.50;;;17.80;55.20;;;;;;5071667;28;20244;-67
2022/02/16 10:20:17;;;;;;;0.70;0.47;;;17.80;55.20;;;;;;5070769;28;20629;-67
2022/02/16 10:22:44;;;;;;;0.73;0.40;;;17.80;55.30;;;;;;5047314;28;20178;-67
2022/02/16 10:25:11;;;;;;;1.13;0.55;;;17.80;55.30;;;;;;5059890;28;20175;-67
2022/02/16 10:27:36;;;;;;;1.58;0.40;;;17.70;55.30;;;;;;5050306;28;20242;-68
2022/02/16 10:30:14;;;;;;;1.85;0.60;;;17.70;55.50;;;;;;5059730;28;20197;-69
2022/02/16 10:32:39;;;;;;;2.10;0.40;;;17.70;55.40;;;;;;5061774;28;20723;-69
2022/02/16 10:35:05;;;;;;;0.98;0.88;;;17.60;55.40;;;;;;5070884;28;20178;-69
2022/02/16 10:37:35;;;;;;;2.00;0.70;;;17.70;56.20;;;;;;5055499;28;20650;-69
2022/02/16 10:40:12;;;;;;;1.65;0.60;;;17.60;55.50;;;;;;5061239;28;20185;-68
2022/02/16 10:42:58;;;;;;;1.88;0.47;;;17.60;55.40;;;;;;5051490;28;20199;-67
2022/02/16 10:45:25;;;;;;;3.17;0.55;;;17.70;55.40;;;;;;5050508;28;20610;-67
2022/02/16 10:47:59;;;;;;;4.45;0.55;;;17.70;55.40;;;;;;5050615;28;20211;-67
2022/02/16 10:50:26;;;;;;;2.22;0.60;;;17.70;55.30;;;;;;5051489;28;20170;-67
2022/02/16 10:52:56;;;;;;;1.73;0.60;;;17.80;55.40;;;;;;5051662;28;20252;-66
2022/02/16 10:55:44;;;;;;;4.15;0.70;;;17.80;55.50;;;;;;5053186;28;20171;-66
2022/02/16 10:58:13;;;;;;;1.55;0.40;;;17.80;55.50;;;;;;5071093;28;20189;-67
2022/02/16 11:00:40;;;;;;;0.63;0.57;;;17.80;55.50;;;;;;5070890;28;20175;-68
2022/02/16 11:03:06;;;;;;;0.70;0.43;;;17.90;55.60;;;;;;5087075;28;20253;-76
2022/02/16 11:05:32;;;;;;;1.77;0.50;;;17.90;55.70;;;;;;5091931;28;20262;-69
2022/02/16 11:08:01;;;;;;;1.65;0.70;;;18.00;55.60;;;;;;5072705;28;20290;-68
2022/02/16 11:10:28;;;;;;;3.03;0.60;;;18.10;55.60;;;;;;5073521;28;20162;-68
2022/02/16 11:12:53;;;;;;;7.13;1.00;;;18.20;55.40;;;;;;5073164;28;20587;-66
2022/02/16 11:15:20;;;;;;;4.60;0.68;;;18.30;55.30;;;;;;5090921;28;20174;-67
2022/02/16 11:17:45;;;;;;;3.03;0.63;;;18.40;55.20;;;;;;5073518;28;20548;-67
2022/02/16 11:20:25;;;;;;;3.75;0.80;;;18.40;55.00;;;;;;5056382;28;20170;-67
2022/02/16 11:22:58;;;;;;;7.72;0.80;;;18.60;54.80;;;;;;5090636;28;20192;-67
2022/02/16 11:25:31;;;;;;;3.47;0.98;;;18.60;54.70;;;;;;5091695;28;20220;-68
2022/02/16 11:27:56;;;;;;;3.53;0.88;;;18.70;54.60;;;;;;5091055;28;20575;-69
2022/02/16 11:30:32;;;;;;;1.77;0.50;;;18.70;54.50;;;;;;5090563;28;20639;-68
2022/02/16 11:33:20;;;;;;;2.13;0.40;;;18.80;54.40;;;;;;5074227;28;20192;-71
2022/02/16 11:35:53;;;;;;;1.80;0.85;;;18.90;54.30;;;;;;5086827;28;20166;-71
2022/02/16 11:38:23;;;;;;;2.83;0.50;;;18.80;54.30;;;;;;5071082;28;20633;-69
2022/02/16 11:40:51;;;;;;;5.22;1.02;;;18.80;54.30;;;;;;5072315;28;20507;-70
2022/02/16 11:43:18;;;;;;;1.60;0.60;;;18.90;55.00;;;;;;5073857;28;20182;-68
2022/02/16 11:45:52;;;;;;;4.32;0.77;;;18.90;54.30;;;;;;5074832;28;20540;-68
2022/02/16 11:48:37;;;;;;;5.50;0.98;;;18.90;54.30;;;;;;5081023;28;20213;-68
2022/02/16 11:51:24;;;;;;;2.67;0.80;;;18.90;54.20;;;;;;5094283;28;20236;-68
2022/02/16 11:53:50;;;;;;;6.70;0.82;;;18.90;54.20;;;;;;5095289;28;20176;-69
2022/02/16 11:56:17;;;;;;;2.35;0.90;;;18.90;54.30;;;;;;5084572;28;20320;-66
2022/02/16 11:58:42;;;;;;;5.53;0.80;;;18.90;54.20;;;;;;5073735;28;20239;-65
2022/02/16 12:01:15;;;;;;;4.45;0.88;;;18.90;54.20;;;;;;5074195;28;20629;-66
2022/02/16 12:03:50;;;;;;;2.00;0.80;;;18.80;54.30;;;;;;5074597;28;20251;-67
2022/02/16 12:06:20;;;;;;;2.65;0.88;;;18.90;54.40;;;;;;5074111;28;20201;-70
2022/02/16 12:08:48;;;;;;;3.33;0.80;;;18.80;54.40;;;;;;5056967;28;20742;-70
2022/02/16 12:11:23;;;;;;;3.67;1.02;;;18.80;54.60;;;;;;5073661;28;20181;-68
2022/02/16 12:13:55;;;;;;;3.45;1.13;;;18.70;54.50;;;;;;5074595;28;20198;-68
2022/02/16 12:16:25;;;;;;;3.25;0.65;;;18.70;54.60;;;;;;5074392;28;20585;-68
2022/02/16 12:18:50;;;;;;;2.05;0.90;;;18.80;54.70;;;;;;5073644;28;20202;-66
2022/02/16 12:21:27;;;;;;;2.83;1.00;;;18.80;54.70;;;;;;5073828;28;20167;-68
2022/02/16 12:23:59;;;;;;;3.17;1.10;;;18.80;54.60;;;;;;5074439;28;20170;-68
2022/02/16 12:26:25;;;;;;;2.47;0.88;;;18.80;54.60;;;;;;5073499;28;20258;-68
2022/02/16 12:29:02;;;;;;;3.75;0.98;;;18.80;54.60;;;;;;5074023;28;20275;-68
2022/02/16 12:31:36;;;;;;;2.05;0.77;;;18.90;54.70;;;;;;5073880;28;20170;-69
2022/02/16 12:34:05;;;;;;;3.17;1.13;;;18.90;54.60;;;;;;5072941;28;20261;-71
2022/02/16 12:36:31;;;;;;;7.07;1.15;;;18.90;54.60;;;;;;5066731;28;20179;-69
2022/02/16 12:38:57;;;;;;;2.65;0.90;;;18.90;54.50;;;;;;5069826;28;20175;-69
2022/02/16 12:41:23;;;;;;;2.03;0.77;;;18.80;54.70;;;;;;5073818;28;20538;-68
2022/02/16 12:43:58;;;;;;;2.65;0.98;;;18.80;54.70;;;;;;5063716;28;20171;-69
2022/02/16 12:46:25;;;;;;;4.32;1.10;;;18.80;54.70;;;;;;5073066;28;20201;-69